sensor_id;sensor_type;location;lat;lon;timestamp;P1;durP1;ratioP1;P2;durP2;ratioP2
76729;SDS011;65653;53.106;18.046;2024-03-22T00:02:09;18.70;;;9.90;;
76729;SDS011;65653;53.106;18.046;2024-03-22T00:04:36;18.70;;;10.60;;
76729;SDS011;65653;53.106;18.046;2024-03-22T00:07:03;18.40;;;10.00;;
76729;SDS011;65653;53.106;18.046;2024-03-22T00:09:30;21.30;;;11.20;;
76729;SDS011;65653;53.106;18.046;2024-03-22T00:11:57;21.00;;;11.50;;
76729;SDS011;65653;53.106;18.046;2024-03-22T00:14:24;22.50;;;11.60;;
76729;SDS011;65653;53.106;18.046;2024-03-22T00:16:50;22.10;;;12.30;;
76729;SDS011;65653;53.106;18.046;2024-03-22T00:19:17;21.10;;;11.40;;
76729;SDS011;65653;53.106;18.046;2024-03-22T00:21:43;22.30;;;11.30;;
76729;SDS011;65653;53.106;18.046;2024-03-22T00:24:10;21.30;;;11.40;;
76729;SDS011;65653;53.106;18.046;2024-03-22T00:26:37;21.30;;;12.10;;
76729;SDS011;65653;53.106;18.046;2024-03-22T00:29:03;23.60;;;12.70;;
76729;SDS011;65653;53.106;18.046;2024-03-22T00:31:29;23.30;;;12.40;;
76729;SDS011;65653;53.106;18.046;2024-03-22T00:33:56;21.20;;;11.90;;
76729;SDS011;65653;53.106;18.046;2024-03-22T00:36:23;25.20;;;12.50;;
76729;SDS011;65653;53.106;18.046;2024-03-22T00:38:49;27.00;;;12.50;;
76729;SDS011;65653;53.106;18.046;2024-03-22T00:41:16;24.40;;;11.40;;
76729;SDS011;65653;53.106;18.046;2024-03-22T00:43:42;30.80;;;14.90;;
76729;SDS011;65653;53.106;18.046;2024-03-22T00:46:08;23.80;;;12.50;;
76729;SDS011;65653;53.106;18.046;2024-03-22T00:48:35;25.40;;;12.30;;
76729;SDS011;65653;53.106;18.046;2024-03-22T00:51:02;26.00;;;13.10;;
76729;SDS011;65653;53.106;18.046;2024-03-22T00:53:29;28.40;;;13.70;;
76729;SDS011;65653;53.106;18.046;2024-03-22T00:55:56;28.90;;;14.30;;
76729;SDS011;65653;53.106;18.046;2024-03-22T00:58:28;25.00;;;12.00;;
76729;SDS011;65653;53.106;18.046;2024-03-22T01:00:55;30.80;;;14.60;;
76729;SDS011;65653;53.106;18.046;2024-03-22T01:03:22;24.20;;;11.90;;
76729;SDS011;65653;53.106;18.046;2024-03-22T01:05:49;26.90;;;13.40;;
76729;SDS011;65653;53.106;18.046;2024-03-22T01:08:16;27.30;;;12.60;;
76729;SDS011;65653;53.106;18.046;2024-03-22T01:10:42;30.40;;;14.00;;
76729;SDS011;65653;53.106;18.046;2024-03-22T01:13:08;30.90;;;15.10;;
76729;SDS011;65653;53.106;18.046;2024-03-22T01:15:35;30.60;;;13.70;;
76729;SDS011;65653;53.106;18.046;2024-03-22T01:18:01;29.20;;;13.50;;
76729;SDS011;65653;53.106;18.046;2024-03-22T01:20:28;32.90;;;14.20;;
76729;SDS011;65653;53.106;18.046;2024-03-22T01:22:55;26.90;;;12.50;;
76729;SDS011;65653;53.106;18.046;2024-03-22T01:25:21;30.80;;;14.80;;
76729;SDS011;65653;53.106;18.046;2024-03-22T01:27:47;32.00;;;15.50;;
76729;SDS011;65653;53.106;18.046;2024-03-22T01:30:14;28.70;;;13.20;;
76729;SDS011;65653;53.106;18.046;2024-03-22T01:32:40;31.60;;;14.60;;
76729;SDS011;65653;53.106;18.046;2024-03-22T01:35:07;31.00;;;14.30;;
76729;SDS011;65653;53.106;18.046;2024-03-22T01:37:34;35.40;;;14.50;;
76729;SDS011;65653;53.106;18.046;2024-03-22T01:40:01;41.90;;;17.20;;
76729;SDS011;65653;53.106;18.046;2024-03-22T01:42:27;40.20;;;17.70;;
76729;SDS011;65653;53.106;18.046;2024-03-22T01:44:54;39.60;;;16.10;;
76729;SDS011;65653;53.106;18.046;2024-03-22T01:47:21;33.30;;;14.20;;
76729;SDS011;65653;53.106;18.046;2024-03-22T01:49:47;41.00;;;15.90;;
76729;SDS011;65653;53.106;18.046;2024-03-22T01:52:16;39.30;;;17.60;;
76729;SDS011;65653;53.106;18.046;2024-03-22T01:54:43;37.50;;;17.10;;
76729;SDS011;65653;53.106;18.046;2024-03-22T01:57:09;40.20;;;17.50;;
76729;SDS011;65653;53.106;18.046;2024-03-22T01:59:36;34.60;;;16.50;;
76729;SDS011;65653;53.106;18.046;2024-03-22T02:02:03;51.50;;;20.30;;
76729;SDS011;65653;53.106;18.046;2024-03-22T02:04:30;39.60;;;16.80;;
76729;SDS011;65653;53.106;18.046;2024-03-22T02:06:56;31.60;;;13.40;;
76729;SDS011;65653;53.106;18.046;2024-03-22T02:09:22;43.10;;;18.00;;
76729;SDS011;65653;53.106;18.046;2024-03-22T02:11:49;47.70;;;18.80;;
76729;SDS011;65653;53.106;18.046;2024-03-22T02:14:16;49.00;;;19.50;;
76729;SDS011;65653;53.106;18.046;2024-03-22T02:16:42;50.90;;;19.20;;
76729;SDS011;65653;53.106;18.046;2024-03-22T02:19:08;49.10;;;20.30;;
76729;SDS011;65653;53.106;18.046;2024-03-22T02:21:35;47.30;;;18.70;;
76729;SDS011;65653;53.106;18.046;2024-03-22T02:24:01;39.10;;;16.20;;
76729;SDS011;65653;53.106;18.046;2024-03-22T02:26:27;42.80;;;17.50;;
76729;SDS011;65653;53.106;18.046;2024-03-22T02:28:54;47.30;;;18.90;;
76729;SDS011;65653;53.106;18.046;2024-03-22T02:31:20;45.30;;;18.80;;
76729;SDS011;65653;53.106;18.046;2024-03-22T02:33:47;38.70;;;15.90;;
76729;SDS011;65653;53.106;18.046;2024-03-22T02:36:13;47.40;;;18.20;;
76729;SDS011;65653;53.106;18.046;2024-03-22T02:38:39;47.50;;;18.00;;
76729;SDS011;65653;53.106;18.046;2024-03-22T02:41:06;35.80;;;15.60;;
76729;SDS011;65653;53.106;18.046;2024-03-22T02:43:32;43.30;;;17.70;;
76729;SDS011;65653;53.106;18.046;2024-03-22T02:45:58;40.90;;;17.20;;
76729;SDS011;65653;53.106;18.046;2024-03-22T02:48:25;37.50;;;14.20;;
76729;SDS011;65653;53.106;18.046;2024-03-22T02:50:54;42.30;;;15.30;;
76729;SDS011;65653;53.106;18.046;2024-03-22T02:53:21;31.50;;;13.90;;
76729;SDS011;65653;53.106;18.046;2024-03-22T02:55:48;41.80;;;17.30;;
76729;SDS011;65653;53.106;18.046;2024-03-22T02:58:16;41.40;;;17.40;;
76729;SDS011;65653;53.106;18.046;2024-03-22T03:00:43;30.10;;;13.20;;
76729;SDS011;65653;53.106;18.046;2024-03-22T03:03:09;35.50;;;14.80;;
76729;SDS011;65653;53.106;18.046;2024-03-22T03:05:36;41.60;;;16.30;;
76729;SDS011;65653;53.106;18.046;2024-03-22T03:08:02;36.90;;;14.30;;
76729;SDS011;65653;53.106;18.046;2024-03-22T03:10:29;36.90;;;15.60;;
76729;SDS011;65653;53.106;18.046;2024-03-22T03:12:56;35.90;;;13.70;;
76729;SDS011;65653;53.106;18.046;2024-03-22T03:15:22;48.00;;;16.40;;
76729;SDS011;65653;53.106;18.046;2024-03-22T03:17:49;33.80;;;13.20;;
76729;SDS011;65653;53.106;18.046;2024-03-22T03:20:16;38.70;;;15.10;;
76729;SDS011;65653;53.106;18.046;2024-03-22T03:22:43;41.00;;;16.70;;
76729;SDS011;65653;53.106;18.046;2024-03-22T03:25:09;40.00;;;16.70;;
76729;SDS011;65653;53.106;18.046;2024-03-22T03:27:36;75.20;;;25.10;;
76729;SDS011;65653;53.106;18.046;2024-03-22T03:30:02;70.80;;;26.90;;
76729;SDS011;65653;53.106;18.046;2024-03-22T03:32:30;49.60;;;18.70;;
76729;SDS011;65653;53.106;18.046;2024-03-22T03:34:56;54.30;;;20.10;;
76729;SDS011;65653;53.106;18.046;2024-03-22T03:37:23;59.90;;;21.30;;
76729;SDS011;65653;53.106;18.046;2024-03-22T03:39:49;49.10;;;18.00;;
76729;SDS011;65653;53.106;18.046;2024-03-22T03:42:15;55.90;;;21.30;;
76729;SDS011;65653;53.106;18.046;2024-03-22T03:44:42;66.00;;;23.30;;
76729;SDS011;65653;53.106;18.046;2024-03-22T03:47:08;48.90;;;16.80;;
76729;SDS011;65653;53.106;18.046;2024-03-22T03:49:34;47.70;;;18.50;;
76729;SDS011;65653;53.106;18.046;2024-03-22T03:52:01;45.50;;;16.90;;
76729;SDS011;65653;53.106;18.046;2024-03-22T03:54:27;44.90;;;17.50;;
76729;SDS011;65653;53.106;18.046;2024-03-22T03:56:54;44.20;;;18.40;;
76729;SDS011;65653;53.106;18.046;2024-03-22T03:59:20;61.30;;;22.40;;
76729;SDS011;65653;53.106;18.046;2024-03-22T04:01:47;36.20;;;14.90;;
76729;SDS011;65653;53.106;18.046;2024-03-22T04:04:13;50.60;;;18.30;;
76729;SDS011;65653;53.106;18.046;2024-03-22T04:06:40;49.10;;;19.10;;
76729;SDS011;65653;53.106;18.046;2024-03-22T04:09:06;44.30;;;17.20;;
76729;SDS011;65653;53.106;18.046;2024-03-22T04:11:33;37.40;;;15.90;;
76729;SDS011;65653;53.106;18.046;2024-03-22T04:13:59;37.40;;;15.50;;
76729;SDS011;65653;53.106;18.046;2024-03-22T04:16:25;48.90;;;19.00;;
76729;SDS011;65653;53.106;18.046;2024-03-22T04:18:52;39.20;;;16.60;;
76729;SDS011;65653;53.106;18.046;2024-03-22T04:21:19;48.40;;;18.50;;
76729;SDS011;65653;53.106;18.046;2024-03-22T04:23:46;41.60;;;16.30;;
76729;SDS011;65653;53.106;18.046;2024-03-22T04:26:14;37.20;;;16.30;;
76729;SDS011;65653;53.106;18.046;2024-03-22T04:28:41;37.70;;;16.10;;
76729;SDS011;65653;53.106;18.046;2024-03-22T04:31:08;41.00;;;15.40;;
76729;SDS011;65653;53.106;18.046;2024-03-22T04:33:36;47.30;;;17.40;;
76729;SDS011;65653;53.106;18.046;2024-03-22T04:36:03;38.80;;;15.10;;
76729;SDS011;65653;53.106;18.046;2024-03-22T04:38:30;45.90;;;19.00;;
76729;SDS011;65653;53.106;18.046;2024-03-22T04:40:57;43.90;;;16.50;;
76729;SDS011;65653;53.106;18.046;2024-03-22T04:43:24;49.80;;;19.30;;
76729;SDS011;65653;53.106;18.046;2024-03-22T04:45:51;42.10;;;17.30;;
76729;SDS011;65653;53.106;18.046;2024-03-22T04:48:18;33.60;;;13.00;;
76729;SDS011;65653;53.106;18.046;2024-03-22T04:50:49;39.60;;;15.40;;
76729;SDS011;65653;53.106;18.046;2024-03-22T04:53:17;40.90;;;15.60;;
76729;SDS011;65653;53.106;18.046;2024-03-22T04:55:44;45.70;;;18.10;;
76729;SDS011;65653;53.106;18.046;2024-03-22T04:58:12;37.50;;;16.00;;
76729;SDS011;65653;53.106;18.046;2024-03-22T05:00:43;37.90;;;15.40;;
76729;SDS011;65653;53.106;18.046;2024-03-22T05:03:10;49.40;;;18.50;;
76729;SDS011;65653;53.106;18.046;2024-03-22T05:05:38;43.50;;;17.00;;
76729;SDS011;65653;53.106;18.046;2024-03-22T05:08:05;39.10;;;14.70;;
76729;SDS011;65653;53.106;18.046;2024-03-22T05:10:32;35.60;;;15.40;;
76729;SDS011;65653;53.106;18.046;2024-03-22T05:12:59;38.80;;;15.00;;
76729;SDS011;65653;53.106;18.046;2024-03-22T05:15:26;41.20;;;15.60;;
76729;SDS011;65653;53.106;18.046;2024-03-22T05:17:53;36.50;;;13.80;;
76729;SDS011;65653;53.106;18.046;2024-03-22T05:20:20;38.60;;;15.10;;
76729;SDS011;65653;53.106;18.046;2024-03-22T05:22:47;31.90;;;13.70;;
76729;SDS011;65653;53.106;18.046;2024-03-22T05:25:14;22.90;;;8.80;;
76729;SDS011;65653;53.106;18.046;2024-03-22T05:27:41;36.60;;;13.30;;
76729;SDS011;65653;53.106;18.046;2024-03-22T05:30:11;29.30;;;12.40;;
76729;SDS011;65653;53.106;18.046;2024-03-22T05:32:40;29.80;;;12.00;;
76729;SDS011;65653;53.106;18.046;2024-03-22T05:35:07;32.80;;;13.40;;
76729;SDS011;65653;53.106;18.046;2024-03-22T05:37:34;27.20;;;11.40;;
76729;SDS011;65653;53.106;18.046;2024-03-22T05:40:03;26.40;;;9.90;;
76729;SDS011;65653;53.106;18.046;2024-03-22T05:44:59;36.40;;;15.90;;
76729;SDS011;65653;53.106;18.046;2024-03-22T05:47:25;27.60;;;11.70;;
76729;SDS011;65653;53.106;18.046;2024-03-22T05:49:52;23.20;;;9.90;;
76729;SDS011;65653;53.106;18.046;2024-03-22T05:52:18;31.40;;;11.70;;
76729;SDS011;65653;53.106;18.046;2024-03-22T05:54:45;22.40;;;8.60;;
76729;SDS011;65653;53.106;18.046;2024-03-22T05:57:11;21.90;;;8.90;;
76729;SDS011;65653;53.106;18.046;2024-03-22T05:59:38;19.50;;;7.50;;
76729;SDS011;65653;53.106;18.046;2024-03-22T06:02:04;26.50;;;10.70;;
76729;SDS011;65653;53.106;18.046;2024-03-22T06:04:31;18.10;;;8.20;;
76729;SDS011;65653;53.106;18.046;2024-03-22T06:06:58;22.60;;;9.20;;
76729;SDS011;65653;53.106;18.046;2024-03-22T06:09:26;17.70;;;8.90;;
76729;SDS011;65653;53.106;18.046;2024-03-22T06:12:04;17.70;;;7.60;;
76729;SDS011;65653;53.106;18.046;2024-03-22T06:14:31;25.90;;;11.50;;
76729;SDS011;65653;53.106;18.046;2024-03-22T06:16:58;29.20;;;12.00;;
76729;SDS011;65653;53.106;18.046;2024-03-22T06:19:24;28.50;;;11.30;;
76729;SDS011;65653;53.106;18.046;2024-03-22T06:21:51;34.50;;;13.40;;
76729;SDS011;65653;53.106;18.046;2024-03-22T06:24:18;26.20;;;10.90;;
76729;SDS011;65653;53.106;18.046;2024-03-22T06:26:44;32.80;;;14.00;;
76729;SDS011;65653;53.106;18.046;2024-03-22T06:29:11;32.40;;;13.90;;
76729;SDS011;65653;53.106;18.046;2024-03-22T06:31:38;27.00;;;12.20;;
76729;SDS011;65653;53.106;18.046;2024-03-22T06:34:05;28.10;;;11.40;;
76729;SDS011;65653;53.106;18.046;2024-03-22T06:36:31;30.60;;;12.70;;
76729;SDS011;65653;53.106;18.046;2024-03-22T06:38:58;26.30;;;10.70;;
76729;SDS011;65653;53.106;18.046;2024-03-22T06:41:26;30.80;;;12.30;;
76729;SDS011;65653;53.106;18.046;2024-03-22T06:43:54;31.00;;;13.10;;
76729;SDS011;65653;53.106;18.046;2024-03-22T06:46:21;29.90;;;12.10;;
76729;SDS011;65653;53.106;18.046;2024-03-22T06:48:47;32.40;;;11.90;;
76729;SDS011;65653;53.106;18.046;2024-03-22T06:51:13;28.60;;;11.70;;
76729;SDS011;65653;53.106;18.046;2024-03-22T06:53:40;28.70;;;11.60;;
76729;SDS011;65653;53.106;18.046;2024-03-22T06:56:06;24.20;;;10.70;;
76729;SDS011;65653;53.106;18.046;2024-03-22T06:58:38;29.10;;;12.40;;
76729;SDS011;65653;53.106;18.046;2024-03-22T07:01:05;27.40;;;11.00;;
76729;SDS011;65653;53.106;18.046;2024-03-22T07:03:31;25.80;;;11.10;;
76729;SDS011;65653;53.106;18.046;2024-03-22T07:05:58;26.00;;;11.60;;
76729;SDS011;65653;53.106;18.046;2024-03-22T07:08:24;25.60;;;11.30;;
76729;SDS011;65653;53.106;18.046;2024-03-22T07:10:51;26.50;;;11.50;;
76729;SDS011;65653;53.106;18.046;2024-03-22T07:13:19;26.00;;;11.70;;
76729;SDS011;65653;53.106;18.046;2024-03-22T07:15:47;22.80;;;11.00;;
76729;SDS011;65653;53.106;18.046;2024-03-22T07:18:13;19.90;;;9.30;;
76729;SDS011;65653;53.106;18.046;2024-03-22T07:20:41;21.80;;;9.60;;
76729;SDS011;65653;53.106;18.046;2024-03-22T07:23:08;22.70;;;10.30;;
76729;SDS011;65653;53.106;18.046;2024-03-22T07:25:35;26.40;;;11.10;;
76729;SDS011;65653;53.106;18.046;2024-03-22T07:28:01;23.90;;;10.70;;
76729;SDS011;65653;53.106;18.046;2024-03-22T07:30:27;19.70;;;9.00;;
76729;SDS011;65653;53.106;18.046;2024-03-22T07:32:54;21.90;;;10.00;;
76729;SDS011;65653;53.106;18.046;2024-03-22T07:35:20;18.30;;;8.60;;
76729;SDS011;65653;53.106;18.046;2024-03-22T07:37:46;21.80;;;10.50;;
76729;SDS011;65653;53.106;18.046;2024-03-22T07:40:13;19.00;;;9.80;;
76729;SDS011;65653;53.106;18.046;2024-03-22T07:42:39;20.90;;;9.70;;
76729;SDS011;65653;53.106;18.046;2024-03-22T07:45:06;20.50;;;9.80;;
76729;SDS011;65653;53.106;18.046;2024-03-22T07:47:33;18.10;;;8.40;;
76729;SDS011;65653;53.106;18.046;2024-03-22T07:50:00;22.70;;;11.60;;
76729;SDS011;65653;53.106;18.046;2024-03-22T07:52:26;20.60;;;9.90;;
76729;SDS011;65653;53.106;18.046;2024-03-22T07:54:53;19.30;;;9.30;;
76729;SDS011;65653;53.106;18.046;2024-03-22T07:57:19;20.20;;;9.70;;
76729;SDS011;65653;53.106;18.046;2024-03-22T07:59:47;19.10;;;9.50;;
76729;SDS011;65653;53.106;18.046;2024-03-22T08:02:13;23.60;;;10.90;;
76729;SDS011;65653;53.106;18.046;2024-03-22T08:04:40;23.30;;;11.80;;
76729;SDS011;65653;53.106;18.046;2024-03-22T08:07:06;21.40;;;9.90;;
76729;SDS011;65653;53.106;18.046;2024-03-22T08:09:32;16.60;;;8.10;;
76729;SDS011;65653;53.106;18.046;2024-03-22T08:12:00;19.40;;;9.40;;
76729;SDS011;65653;53.106;18.046;2024-03-22T08:14:26;22.20;;;11.60;;
76729;SDS011;65653;53.106;18.046;2024-03-22T08:16:52;23.10;;;10.80;;
76729;SDS011;65653;53.106;18.046;2024-03-22T08:19:19;22.50;;;12.20;;
76729;SDS011;65653;53.106;18.046;2024-03-22T08:21:45;18.60;;;9.90;;
76729;SDS011;65653;53.106;18.046;2024-03-22T08:24:11;22.10;;;12.00;;
76729;SDS011;65653;53.106;18.046;2024-03-22T08:26:38;20.00;;;10.50;;
76729;SDS011;65653;53.106;18.046;2024-03-22T08:29:04;20.40;;;10.40;;
76729;SDS011;65653;53.106;18.046;2024-03-22T08:31:31;18.10;;;10.70;;
76729;SDS011;65653;53.106;18.046;2024-03-22T08:34:00;20.50;;;11.40;;
76729;SDS011;65653;53.106;18.046;2024-03-22T08:36:28;19.70;;;10.80;;
76729;SDS011;65653;53.106;18.046;2024-03-22T08:38:54;21.90;;;11.90;;
76729;SDS011;65653;53.106;18.046;2024-03-22T08:41:21;18.80;;;10.20;;
76729;SDS011;65653;53.106;18.046;2024-03-22T08:43:47;25.50;;;12.60;;
76729;SDS011;65653;53.106;18.046;2024-03-22T08:46:14;14.80;;;9.10;;
76729;SDS011;65653;53.106;18.046;2024-03-22T08:48:40;35.40;;;20.80;;
76729;SDS011;65653;53.106;18.046;2024-03-22T08:51:06;21.80;;;11.90;;
76729;SDS011;65653;53.106;18.046;2024-03-22T08:53:33;33.70;;;18.10;;
76729;SDS011;65653;53.106;18.046;2024-03-22T08:55:59;20.60;;;11.10;;
76729;SDS011;65653;53.106;18.046;2024-03-22T08:58:25;18.00;;;10.60;;
76729;SDS011;65653;53.106;18.046;2024-03-22T09:00:52;19.30;;;10.40;;
76729;SDS011;65653;53.106;18.046;2024-03-22T09:03:20;18.80;;;10.50;;
76729;SDS011;65653;53.106;18.046;2024-03-22T09:05:47;18.90;;;10.30;;
76729;SDS011;65653;53.106;18.046;2024-03-22T09:08:13;14.00;;;8.60;;
76729;SDS011;65653;53.106;18.046;2024-03-22T09:10:40;16.70;;;9.10;;
76729;SDS011;65653;53.106;18.046;2024-03-22T09:13:06;15.20;;;9.10;;
76729;SDS011;65653;53.106;18.046;2024-03-22T09:15:34;17.30;;;9.70;;
76729;SDS011;65653;53.106;18.046;2024-03-22T09:18:00;15.90;;;9.50;;
76729;SDS011;65653;53.106;18.046;2024-03-22T09:20:27;16.70;;;9.30;;
76729;SDS011;65653;53.106;18.046;2024-03-22T09:22:54;16.50;;;9.20;;
76729;SDS011;65653;53.106;18.046;2024-03-22T09:25:20;18.00;;;9.90;;
76729;SDS011;65653;53.106;18.046;2024-03-22T09:27:47;16.20;;;10.20;;
76729;SDS011;65653;53.106;18.046;2024-03-22T09:30:13;15.40;;;9.00;;
76729;SDS011;65653;53.106;18.046;2024-03-22T09:32:43;16.00;;;9.40;;
76729;SDS011;65653;53.106;18.046;2024-03-22T09:35:13;16.60;;;10.00;;
76729;SDS011;65653;53.106;18.046;2024-03-22T09:37:43;17.80;;;10.60;;
76729;SDS011;65653;53.106;18.046;2024-03-22T09:40:11;19.10;;;10.50;;
76729;SDS011;65653;53.106;18.046;2024-03-22T09:42:41;18.50;;;10.20;;
76729;SDS011;65653;53.106;18.046;2024-03-22T09:45:08;20.30;;;10.80;;
76729;SDS011;65653;53.106;18.046;2024-03-22T09:47:37;14.40;;;8.70;;
76729;SDS011;65653;53.106;18.046;2024-03-22T09:50:06;17.90;;;10.00;;
76729;SDS011;65653;53.106;18.046;2024-03-22T09:52:33;19.90;;;11.40;;
76729;SDS011;65653;53.106;18.046;2024-03-22T09:55:00;18.10;;;10.40;;
76729;SDS011;65653;53.106;18.046;2024-03-22T09:58:10;17.60;;;9.90;;
76729;SDS011;65653;53.106;18.046;2024-03-22T10:00:36;21.10;;;11.90;;
76729;SDS011;65653;53.106;18.046;2024-03-22T10:03:03;19.70;;;11.00;;
76729;SDS011;65653;53.106;18.046;2024-03-22T10:05:31;17.10;;;10.60;;
76729;SDS011;65653;53.106;18.046;2024-03-22T10:07:58;15.80;;;10.10;;
76729;SDS011;65653;53.106;18.046;2024-03-22T10:10:24;16.10;;;11.20;;
76729;SDS011;65653;53.106;18.046;2024-03-22T10:12:51;16.30;;;11.30;;
76729;SDS011;65653;53.106;18.046;2024-03-22T10:15:19;16.80;;;12.00;;
76729;SDS011;65653;53.106;18.046;2024-03-22T10:17:46;16.60;;;10.20;;
76729;SDS011;65653;53.106;18.046;2024-03-22T10:20:12;16.90;;;10.70;;
76729;SDS011;65653;53.106;18.046;2024-03-22T10:22:43;18.30;;;10.90;;
76729;SDS011;65653;53.106;18.046;2024-03-22T10:25:10;17.40;;;11.00;;
76729;SDS011;65653;53.106;18.046;2024-03-22T10:27:40;15.80;;;10.60;;
76729;SDS011;65653;53.106;18.046;2024-03-22T10:30:08;16.60;;;10.70;;
76729;SDS011;65653;53.106;18.046;2024-03-22T10:32:36;15.50;;;10.00;;
76729;SDS011;65653;53.106;18.046;2024-03-22T10:35:02;17.10;;;11.00;;
76729;SDS011;65653;53.106;18.046;2024-03-22T10:37:33;17.30;;;10.40;;
76729;SDS011;65653;53.106;18.046;2024-03-22T10:40:03;17.20;;;10.70;;
76729;SDS011;65653;53.106;18.046;2024-03-22T10:42:36;18.70;;;11.40;;
76729;SDS011;65653;53.106;18.046;2024-03-22T10:45:03;17.40;;;11.20;;
76729;SDS011;65653;53.106;18.046;2024-03-22T10:47:32;17.20;;;10.30;;
76729;SDS011;65653;53.106;18.046;2024-03-22T10:50:03;16.20;;;11.10;;
76729;SDS011;65653;53.106;18.046;2024-03-22T10:55:32;17.60;;;10.50;;
76729;SDS011;65653;53.106;18.046;2024-03-22T10:58:00;15.10;;;10.50;;
76729;SDS011;65653;53.106;18.046;2024-03-22T11:00:27;19.30;;;10.00;;
76729;SDS011;65653;53.106;18.046;2024-03-22T11:02:54;15.20;;;9.20;;
76729;SDS011;65653;53.106;18.046;2024-03-22T11:05:21;17.40;;;10.70;;
76729;SDS011;65653;53.106;18.046;2024-03-22T11:07:58;18.20;;;10.10;;
76729;SDS011;65653;53.106;18.046;2024-03-22T11:10:34;16.30;;;9.80;;
76729;SDS011;65653;53.106;18.046;2024-03-22T11:13:02;20.00;;;9.50;;
76729;SDS011;65653;53.106;18.046;2024-03-22T11:15:33;19.00;;;10.70;;
76729;SDS011;65653;53.106;18.046;2024-03-22T11:17:59;19.90;;;11.10;;
76729;SDS011;65653;53.106;18.046;2024-03-22T11:20:27;20.30;;;10.90;;
76729;SDS011;65653;53.106;18.046;2024-03-22T11:22:54;14.00;;;8.20;;
76729;SDS011;65653;53.106;18.046;2024-03-22T11:25:20;18.60;;;10.50;;
76729;SDS011;65653;53.106;18.046;2024-03-22T11:27:47;14.80;;;8.80;;
76729;SDS011;65653;53.106;18.046;2024-03-22T11:30:16;21.30;;;10.60;;
76729;SDS011;65653;53.106;18.046;2024-03-22T11:32:43;19.30;;;10.50;;
76729;SDS011;65653;53.106;18.046;2024-03-22T11:35:13;22.40;;;11.80;;
76729;SDS011;65653;53.106;18.046;2024-03-22T11:37:40;18.90;;;10.90;;
76729;SDS011;65653;53.106;18.046;2024-03-22T11:40:10;22.20;;;11.20;;
76729;SDS011;65653;53.106;18.046;2024-03-22T11:42:39;21.80;;;12.20;;
76729;SDS011;65653;53.106;18.046;2024-03-22T11:45:08;19.50;;;9.80;;
76729;SDS011;65653;53.106;18.046;2024-03-22T11:47:36;19.20;;;11.70;;
76729;SDS011;65653;53.106;18.046;2024-03-22T11:50:03;24.60;;;11.80;;
76729;SDS011;65653;53.106;18.046;2024-03-22T11:52:30;23.20;;;12.20;;
76729;SDS011;65653;53.106;18.046;2024-03-22T11:54:56;22.50;;;11.60;;
76729;SDS011;65653;53.106;18.046;2024-03-22T11:57:23;21.40;;;11.50;;
76729;SDS011;65653;53.106;18.046;2024-03-22T11:59:50;23.70;;;13.50;;
76729;SDS011;65653;53.106;18.046;2024-03-22T12:02:17;21.00;;;11.50;;
76729;SDS011;65653;53.106;18.046;2024-03-22T12:04:45;25.20;;;11.60;;
76729;SDS011;65653;53.106;18.046;2024-03-22T12:07:13;24.50;;;12.70;;
76729;SDS011;65653;53.106;18.046;2024-03-22T12:09:40;15.20;;;8.10;;
76729;SDS011;65653;53.106;18.046;2024-03-22T12:12:08;21.10;;;11.50;;
76729;SDS011;65653;53.106;18.046;2024-03-22T12:14:35;22.00;;;12.20;;
76729;SDS011;65653;53.106;18.046;2024-03-22T12:17:02;21.20;;;11.70;;
76729;SDS011;65653;53.106;18.046;2024-03-22T12:19:29;23.80;;;12.70;;
76729;SDS011;65653;53.106;18.046;2024-03-22T12:21:55;16.80;;;9.60;;
76729;SDS011;65653;53.106;18.046;2024-03-22T12:24:22;20.50;;;11.40;;
76729;SDS011;65653;53.106;18.046;2024-03-22T12:26:50;19.40;;;10.70;;
76729;SDS011;65653;53.106;18.046;2024-03-22T12:29:17;19.80;;;11.10;;
76729;SDS011;65653;53.106;18.046;2024-03-22T12:31:43;20.80;;;12.30;;
76729;SDS011;65653;53.106;18.046;2024-03-22T12:34:10;18.70;;;11.40;;
76729;SDS011;65653;53.106;18.046;2024-03-22T12:36:36;20.90;;;12.10;;
76729;SDS011;65653;53.106;18.046;2024-03-22T12:39:03;16.80;;;9.90;;
76729;SDS011;65653;53.106;18.046;2024-03-22T12:41:30;22.00;;;13.20;;
76729;SDS011;65653;53.106;18.046;2024-03-22T12:43:58;19.20;;;11.70;;
76729;SDS011;65653;53.106;18.046;2024-03-22T12:46:24;17.30;;;11.30;;
76729;SDS011;65653;53.106;18.046;2024-03-22T12:48:52;20.80;;;11.20;;
76729;SDS011;65653;53.106;18.046;2024-03-22T12:51:18;21.20;;;11.40;;
76729;SDS011;65653;53.106;18.046;2024-03-22T12:53:45;19.70;;;10.70;;
76729;SDS011;65653;53.106;18.046;2024-03-22T12:56:12;19.10;;;11.70;;
76729;SDS011;65653;53.106;18.046;2024-03-22T12:58:38;18.60;;;10.70;;
76729;SDS011;65653;53.106;18.046;2024-03-22T13:01:05;20.90;;;12.00;;
76729;SDS011;65653;53.106;18.046;2024-03-22T13:03:32;22.80;;;13.50;;
76729;SDS011;65653;53.106;18.046;2024-03-22T13:05:59;20.80;;;12.80;;
76729;SDS011;65653;53.106;18.046;2024-03-22T13:08:25;20.30;;;11.90;;
76729;SDS011;65653;53.106;18.046;2024-03-22T13:10:52;22.70;;;13.30;;
76729;SDS011;65653;53.106;18.046;2024-03-22T13:13:18;21.80;;;13.20;;
76729;SDS011;65653;53.106;18.046;2024-03-22T13:15:45;22.50;;;11.90;;
76729;SDS011;65653;53.106;18.046;2024-03-22T13:18:13;20.30;;;12.30;;
76729;SDS011;65653;53.106;18.046;2024-03-22T13:20:40;23.10;;;12.70;;
76729;SDS011;65653;53.106;18.046;2024-03-22T13:23:07;22.10;;;12.90;;
76729;SDS011;65653;53.106;18.046;2024-03-22T13:25:37;21.00;;;13.00;;
76729;SDS011;65653;53.106;18.046;2024-03-22T13:28:03;21.30;;;12.10;;
76729;SDS011;65653;53.106;18.046;2024-03-22T13:30:31;20.70;;;12.00;;
76729;SDS011;65653;53.106;18.046;2024-03-22T13:32:58;19.60;;;12.00;;
76729;SDS011;65653;53.106;18.046;2024-03-22T13:35:25;21.80;;;12.00;;
76729;SDS011;65653;53.106;18.046;2024-03-22T13:37:51;18.80;;;11.00;;
76729;SDS011;65653;53.106;18.046;2024-03-22T13:40:18;19.60;;;10.90;;
76729;SDS011;65653;53.106;18.046;2024-03-22T13:42:44;19.70;;;12.40;;
76729;SDS011;65653;53.106;18.046;2024-03-22T13:45:11;18.50;;;10.90;;
76729;SDS011;65653;53.106;18.046;2024-03-22T13:47:38;17.90;;;10.90;;
76729;SDS011;65653;53.106;18.046;2024-03-22T13:50:07;23.30;;;11.70;;
76729;SDS011;65653;53.106;18.046;2024-03-22T13:52:36;19.80;;;11.50;;
76729;SDS011;65653;53.106;18.046;2024-03-22T13:55:03;19.30;;;11.00;;
76729;SDS011;65653;53.106;18.046;2024-03-22T13:57:30;18.10;;;11.00;;
76729;SDS011;65653;53.106;18.046;2024-03-22T13:59:58;18.70;;;10.80;;
76729;SDS011;65653;53.106;18.046;2024-03-22T14:02:25;18.80;;;10.10;;
76729;SDS011;65653;53.106;18.046;2024-03-22T14:04:51;20.30;;;11.20;;
76729;SDS011;65653;53.106;18.046;2024-03-22T14:07:18;21.30;;;10.30;;
76729;SDS011;65653;53.106;18.046;2024-03-22T14:09:44;19.70;;;10.60;;
76729;SDS011;65653;53.106;18.046;2024-03-22T14:12:11;18.20;;;9.90;;
76729;SDS011;65653;53.106;18.046;2024-03-22T14:14:37;19.40;;;10.80;;
76729;SDS011;65653;53.106;18.046;2024-03-22T14:17:04;17.80;;;9.60;;